sensor_id;sensor_type;location;lat;lon;timestamp;P1;durP1;ratioP1;P2;durP2;ratioP2
64293;SDS011;50636;45.596;5.258;2023-04-15T00:01:31;4.35;;;2.55;;
64293;SDS011;50636;45.596;5.258;2023-04-15T00:03:58;5.80;;;2.72;;
64293;SDS011;50636;45.596;5.258;2023-04-15T00:06:24;6.60;;;2.78;;
64293;SDS011;50636;45.596;5.258;2023-04-15T00:08:50;7.47;;;3.00;;
64293;SDS011;50636;45.596;5.258;2023-04-15T00:11:16;15.50;;;6.50;;
64293;SDS011;50636;45.596;5.258;2023-04-15T00:13:42;15.90;;;7.30;;
64293;SDS011;50636;45.596;5.258;2023-04-15T00:16:08;15.52;;;7.45;;
64293;SDS011;50636;45.596;5.258;2023-04-15T00:18:35;10.10;;;4.57;;
64293;SDS011;50636;45.596;5.258;2023-04-15T00:21:01;25.00;;;9.88;;
64293;SDS011;50636;45.596;5.258;2023-04-15T00:23:28;218.63;;;16.80;;
64293;SDS011;50636;45.596;5.258;2023-04-15T00:25:54;9.77;;;5.03;;
64293;SDS011;50636;45.596;5.258;2023-04-15T00:28:19;6.93;;;3.58;;
64293;SDS011;50636;45.596;5.258;2023-04-15T00:30:45;6.18;;;2.83;;
64293;SDS011;50636;45.596;5.258;2023-04-15T00:33:13;11.50;;;2.75;;
64293;SDS011;50636;45.596;5.258;2023-04-15T00:35:40;10.73;;;6.07;;
64293;SDS011;50636;45.596;5.258;2023-04-15T00:38:06;30.15;;;14.43;;
64293;SDS011;50636;45.596;5.258;2023-04-15T00:40:35;166.27;;;71.43;;
64293;SDS011;50636;45.596;5.258;2023-04-15T00:43:02;314.58;;;125.82;;
64293;SDS011;50636;45.596;5.258;2023-04-15T00:45:28;126.57;;;52.83;;
64293;SDS011;50636;45.596;5.258;2023-04-15T00:47:54;27.98;;;10.27;;
64293;SDS011;50636;45.596;5.258;2023-04-15T00:50:20;14.20;;;7.03;;
64293;SDS011;50636;45.596;5.258;2023-04-15T00:52:46;18.90;;;7.38;;
64293;SDS011;50636;45.596;5.258;2023-04-15T00:55:12;12.52;;;5.70;;
64293;SDS011;50636;45.596;5.258;2023-04-15T00:57:39;5.88;;;2.45;;
64293;SDS011;50636;45.596;5.258;2023-04-15T01:00:05;5.43;;;2.20;;
64293;SDS011;50636;45.596;5.258;2023-04-15T01:02:36;9.43;;;3.85;;
64293;SDS011;50636;45.596;5.258;2023-04-15T01:05:02;6.13;;;2.67;;
64293;SDS011;50636;45.596;5.258;2023-04-15T01:07:29;9.57;;;2.83;;
64293;SDS011;50636;45.596;5.258;2023-04-15T01:09:56;8.93;;;2.63;;
64293;SDS011;50636;45.596;5.258;2023-04-15T01:12:22;4.95;;;2.38;;
64293;SDS011;50636;45.596;5.258;2023-04-15T01:14:50;34.17;;;13.00;;
64293;SDS011;50636;45.596;5.258;2023-04-15T01:17:17;32.42;;;9.43;;
64293;SDS011;50636;45.596;5.258;2023-04-15T01:19:43;32.88;;;11.25;;
64293;SDS011;50636;45.596;5.258;2023-04-15T01:22:09;105.65;;;31.45;;
64293;SDS011;50636;45.596;5.258;2023-04-15T01:24:35;114.68;;;48.88;;
64293;SDS011;50636;45.596;5.258;2023-04-15T01:27:01;133.10;;;61.05;;
64293;SDS011;50636;45.596;5.258;2023-04-15T01:29:29;329.17;;;153.63;;
64293;SDS011;50636;45.596;5.258;2023-04-15T01:31:56;666.95;;;372.98;;
64293;SDS011;50636;45.596;5.258;2023-04-15T01:34:22;379.77;;;180.75;;
64293;SDS011;50636;45.596;5.258;2023-04-15T01:36:48;378.48;;;187.20;;
64293;SDS011;50636;45.596;5.258;2023-04-15T01:39:13;190.40;;;85.55;;
64293;SDS011;50636;45.596;5.258;2023-04-15T01:41:39;30.50;;;12.70;;
64293;SDS011;50636;45.596;5.258;2023-04-15T01:44:06;83.45;;;30.95;;
64293;SDS011;50636;45.596;5.258;2023-04-15T01:46:32;44.35;;;14.93;;
64293;SDS011;50636;45.596;5.258;2023-04-15T01:48:58;45.83;;;17.75;;
64293;SDS011;50636;45.596;5.258;2023-04-15T01:51:24;171.05;;;66.65;;
64293;SDS011;50636;45.596;5.258;2023-04-15T01:53:49;96.45;;;36.15;;
64293;SDS011;50636;45.596;5.258;2023-04-15T01:56:16;23.83;;;9.23;;
64293;SDS011;50636;45.596;5.258;2023-04-15T01:58:42;6.55;;;3.05;;
64293;SDS011;50636;45.596;5.258;2023-04-15T02:01:08;3.95;;;1.90;;
64293;SDS011;50636;45.596;5.258;2023-04-15T02:03:35;4.82;;;1.92;;
64293;SDS011;50636;45.596;5.258;2023-04-15T02:06:01;7.75;;;2.53;;
64293;SDS011;50636;45.596;5.258;2023-04-15T02:08:28;13.82;;;3.65;;
64293;SDS011;50636;45.596;5.258;2023-04-15T02:10:54;16.20;;;5.85;;
64293;SDS011;50636;45.596;5.258;2023-04-15T02:13:20;40.97;;;14.63;;
64293;SDS011;50636;45.596;5.258;2023-04-15T02:15:49;13.40;;;2.80;;
64293;SDS011;50636;45.596;5.258;2023-04-15T02:18:16;5.53;;;2.05;;
64293;SDS011;50636;45.596;5.258;2023-04-15T02:20:42;7.50;;;2.42;;
64293;SDS011;50636;45.596;5.258;2023-04-15T02:23:08;4.32;;;1.77;;
64293;SDS011;50636;45.596;5.258;2023-04-15T02:25:35;4.13;;;1.33;;
64293;SDS011;50636;45.596;5.258;2023-04-15T02:28:01;5.22;;;1.60;;
64293;SDS011;50636;45.596;5.258;2023-04-15T02:30:27;3.20;;;1.25;;
64293;SDS011;50636;45.596;5.258;2023-04-15T02:32:52;5.75;;;1.60;;
64293;SDS011;50636;45.596;5.258;2023-04-15T02:35:18;4.45;;;1.33;;
64293;SDS011;50636;45.596;5.258;2023-04-15T02:37:44;4.47;;;1.20;;
64293;SDS011;50636;45.596;5.258;2023-04-15T02:40:10;4.55;;;1.25;;
64293;SDS011;50636;45.596;5.258;2023-04-15T02:42:40;4.30;;;1.27;;
64293;SDS011;50636;45.596;5.258;2023-04-15T02:45:06;4.75;;;1.50;;
64293;SDS011;50636;45.596;5.258;2023-04-15T02:47:33;2.63;;;1.08;;
64293;SDS011;50636;45.596;5.258;2023-04-15T02:50:00;2.30;;;1.00;;
64293;SDS011;50636;45.596;5.258;2023-04-15T02:52:28;3.22;;;1.38;;
64293;SDS011;50636;45.596;5.258;2023-04-15T02:54:54;3.28;;;1.42;;
64293;SDS011;50636;45.596;5.258;2023-04-15T02:57:24;2.60;;;0.98;;
64293;SDS011;50636;45.596;5.258;2023-04-15T02:59:52;4.07;;;1.30;;
64293;SDS011;50636;45.596;5.258;2023-04-15T03:02:17;4.78;;;1.30;;
64293;SDS011;50636;45.596;5.258;2023-04-15T03:04:43;6.15;;;1.50;;
64293;SDS011;50636;45.596;5.258;2023-04-15T03:07:08;2.33;;;0.90;;
64293;SDS011;50636;45.596;5.258;2023-04-15T03:09:34;5.80;;;1.23;;
64293;SDS011;50636;45.596;5.258;2023-04-15T03:12:00;2.40;;;1.20;;
64293;SDS011;50636;45.596;5.258;2023-04-15T03:14:26;3.10;;;1.35;;
64293;SDS011;50636;45.596;5.258;2023-04-15T03:16:52;3.20;;;1.20;;
64293;SDS011;50636;45.596;5.258;2023-04-15T03:19:17;2.95;;;1.10;;
64293;SDS011;50636;45.596;5.258;2023-04-15T03:21:43;8.45;;;1.90;;
64293;SDS011;50636;45.596;5.258;2023-04-15T03:24:09;2.83;;;1.23;;
64293;SDS011;50636;45.596;5.258;2023-04-15T03:26:34;3.33;;;1.10;;
64293;SDS011;50636;45.596;5.258;2023-04-15T03:29:01;10.68;;;1.48;;
64293;SDS011;50636;45.596;5.258;2023-04-15T03:31:26;6.53;;;1.60;;
64293;SDS011;50636;45.596;5.258;2023-04-15T03:33:52;3.97;;;1.70;;
64293;SDS011;50636;45.596;5.258;2023-04-15T03:36:17;5.15;;;1.25;;
64293;SDS011;50636;45.596;5.258;2023-04-15T03:38:43;5.45;;;1.08;;
64293;SDS011;50636;45.596;5.258;2023-04-15T03:41:09;5.50;;;1.27;;
64293;SDS011;50636;45.596;5.258;2023-04-15T03:43:34;5.10;;;1.20;;
64293;SDS011;50636;45.596;5.258;2023-04-15T03:46:00;3.63;;;1.00;;
64293;SDS011;50636;45.596;5.258;2023-04-15T03:48:26;4.97;;;1.10;;
64293;SDS011;50636;45.596;5.258;2023-04-15T03:50:52;10.00;;;1.25;;
64293;SDS011;50636;45.596;5.258;2023-04-15T03:53:19;38.63;;;34.75;;
64293;SDS011;50636;45.596;5.258;2023-04-15T03:55:45;35.13;;;31.88;;
64293;SDS011;50636;45.596;5.258;2023-04-15T03:58:11;4.38;;;3.30;;
64293;SDS011;50636;45.596;5.258;2023-04-15T04:00:37;4.47;;;0.98;;
64293;SDS011;50636;45.596;5.258;2023-04-15T04:03:03;5.32;;;1.30;;
64293;SDS011;50636;45.596;5.258;2023-04-15T04:05:29;15.18;;;2.17;;
64293;SDS011;50636;45.596;5.258;2023-04-15T04:07:55;9.93;;;2.15;;
64293;SDS011;50636;45.596;5.258;2023-04-15T04:10:21;5.65;;;1.63;;
64293;SDS011;50636;45.596;5.258;2023-04-15T04:12:46;2.08;;;1.20;;
64293;SDS011;50636;45.596;5.258;2023-04-15T04:15:12;7.68;;;1.80;;
64293;SDS011;50636;45.596;5.258;2023-04-15T04:17:38;3.10;;;1.05;;
64293;SDS011;50636;45.596;5.258;2023-04-15T04:20:03;1.88;;;0.90;;
64293;SDS011;50636;45.596;5.258;2023-04-15T04:22:30;10.68;;;2.85;;
64293;SDS011;50636;45.596;5.258;2023-04-15T04:24:55;9.43;;;1.90;;
64293;SDS011;50636;45.596;5.258;2023-04-15T04:27:23;7.82;;;3.78;;
64293;SDS011;50636;45.596;5.258;2023-04-15T04:29:50;1.30;;;0.75;;
64293;SDS011;50636;45.596;5.258;2023-04-15T04:32:15;7.20;;;1.27;;
64293;SDS011;50636;45.596;5.258;2023-04-15T04:34:41;3.58;;;1.13;;
64293;SDS011;50636;45.596;5.258;2023-04-15T04:37:07;5.82;;;1.23;;
64293;SDS011;50636;45.596;5.258;2023-04-15T04:39:32;2.60;;;1.20;;
64293;SDS011;50636;45.596;5.258;2023-04-15T04:41:58;6.97;;;2.42;;
64293;SDS011;50636;45.596;5.258;2023-04-15T04:44:24;2.22;;;1.08;;
64293;SDS011;50636;45.596;5.258;2023-04-15T04:46:49;3.83;;;1.20;;
64293;SDS011;50636;45.596;5.258;2023-04-15T04:49:15;3.83;;;0.90;;
64293;SDS011;50636;45.596;5.258;2023-04-15T04:51:41;4.18;;;1.60;;
64293;SDS011;50636;45.596;5.258;2023-04-15T04:54:06;5.60;;;1.90;;
64293;SDS011;50636;45.596;5.258;2023-04-15T04:56:32;6.78;;;4.32;;
64293;SDS011;50636;45.596;5.258;2023-04-15T04:58:58;2.67;;;1.17;;
64293;SDS011;50636;45.596;5.258;2023-04-15T05:01:24;6.72;;;1.10;;
64293;SDS011;50636;45.596;5.258;2023-04-15T05:03:51;3.55;;;0.95;;
64293;SDS011;50636;45.596;5.258;2023-04-15T05:06:17;3.17;;;1.05;;
64293;SDS011;50636;45.596;5.258;2023-04-15T05:08:43;8.07;;;5.43;;
64293;SDS011;50636;45.596;5.258;2023-04-15T05:11:09;3.05;;;0.82;;
64293;SDS011;50636;45.596;5.258;2023-04-15T05:13:34;2.38;;;0.80;;
64293;SDS011;50636;45.596;5.258;2023-04-15T05:16:03;2.08;;;0.80;;
64293;SDS011;50636;45.596;5.258;2023-04-15T05:18:30;1.42;;;0.80;;
64293;SDS011;50636;45.596;5.258;2023-04-15T05:20:55;2.83;;;0.73;;
64293;SDS011;50636;45.596;5.258;2023-04-15T05:23:21;1.80;;;1.10;;
64293;SDS011;50636;45.596;5.258;2023-04-15T05:25:47;4.10;;;1.02;;
64293;SDS011;50636;45.596;5.258;2023-04-15T05:28:13;3.08;;;0.70;;
64293;SDS011;50636;45.596;5.258;2023-04-15T05:30:38;6.78;;;1.70;;
64293;SDS011;50636;45.596;5.258;2023-04-15T05:33:04;2.00;;;0.90;;
64293;SDS011;50636;45.596;5.258;2023-04-15T05:35:30;3.97;;;1.08;;
64293;SDS011;50636;45.596;5.258;2023-04-15T05:37:56;2.33;;;0.88;;
64293;SDS011;50636;45.596;5.258;2023-04-15T05:40:21;3.72;;;0.77;;
64293;SDS011;50636;45.596;5.258;2023-04-15T05:42:47;3.00;;;0.57;;
64293;SDS011;50636;45.596;5.258;2023-04-15T05:45:13;4.07;;;1.15;;
64293;SDS011;50636;45.596;5.258;2023-04-15T05:47:38;4.88;;;1.20;;
64293;SDS011;50636;45.596;5.258;2023-04-15T05:50:04;2.47;;;1.10;;
64293;SDS011;50636;45.596;5.258;2023-04-15T05:52:30;2.80;;;0.75;;
64293;SDS011;50636;45.596;5.258;2023-04-15T05:54:56;1.90;;;0.52;;
64293;SDS011;50636;45.596;5.258;2023-04-15T05:57:22;4.00;;;0.95;;
64293;SDS011;50636;45.596;5.258;2023-04-15T05:59:48;2.05;;;0.60;;
64293;SDS011;50636;45.596;5.258;2023-04-15T06:02:16;5.38;;;1.10;;
64293;SDS011;50636;45.596;5.258;2023-04-15T06:04:42;7.80;;;1.35;;
64293;SDS011;50636;45.596;5.258;2023-04-15T06:07:08;16.05;;;14.57;;
64293;SDS011;50636;45.596;5.258;2023-04-15T06:09:33;10.05;;;8.88;;
64293;SDS011;50636;45.596;5.258;2023-04-15T06:12:00;10.10;;;7.43;;
64293;SDS011;50636;45.596;5.258;2023-04-15T06:14:26;5.07;;;1.90;;
64293;SDS011;50636;45.596;5.258;2023-04-15T06:16:52;4.18;;;1.63;;
64293;SDS011;50636;45.596;5.258;2023-04-15T06:19:17;3.72;;;1.13;;
64293;SDS011;50636;45.596;5.258;2023-04-15T06:21:43;3.25;;;1.17;;
64293;SDS011;50636;45.596;5.258;2023-04-15T06:24:10;5.43;;;1.52;;
64293;SDS011;50636;45.596;5.258;2023-04-15T06:26:36;6.85;;;1.35;;
64293;SDS011;50636;45.596;5.258;2023-04-15T06:29:02;4.90;;;1.13;;
64293;SDS011;50636;45.596;5.258;2023-04-15T06:31:28;2.30;;;1.10;;
64293;SDS011;50636;45.596;5.258;2023-04-15T06:33:54;5.85;;;1.70;;
64293;SDS011;50636;45.596;5.258;2023-04-15T06:36:20;8.43;;;1.70;;
64293;SDS011;50636;45.596;5.258;2023-04-15T06:38:46;3.30;;;1.60;;
64293;SDS011;50636;45.596;5.258;2023-04-15T06:41:12;4.45;;;1.40;;
64293;SDS011;50636;45.596;5.258;2023-04-15T06:43:38;4.50;;;1.30;;
64293;SDS011;50636;45.596;5.258;2023-04-15T06:46:04;4.88;;;1.40;;
64293;SDS011;50636;45.596;5.258;2023-04-15T06:48:29;9.93;;;1.50;;
64293;SDS011;50636;45.596;5.258;2023-04-15T06:50:55;5.28;;;1.33;;
64293;SDS011;50636;45.596;5.258;2023-04-15T06:53:23;5.57;;;1.17;;
64293;SDS011;50636;45.596;5.258;2023-04-15T06:55:51;5.18;;;1.42;;
64293;SDS011;50636;45.596;5.258;2023-04-15T06:58:16;6.30;;;1.45;;
64293;SDS011;50636;45.596;5.258;2023-04-15T07:00:42;3.22;;;0.98;;
64293;SDS011;50636;45.596;5.258;2023-04-15T07:03:08;9.93;;;2.78;;
64293;SDS011;50636;45.596;5.258;2023-04-15T07:05:35;8.77;;;1.60;;
64293;SDS011;50636;45.596;5.258;2023-04-15T07:08:00;5.07;;;1.45;;
64293;SDS011;50636;45.596;5.258;2023-04-15T07:10:26;7.50;;;1.00;;
64293;SDS011;50636;45.596;5.258;2023-04-15T07:12:52;6.40;;;1.55;;
64293;SDS011;50636;45.596;5.258;2023-04-15T07:15:17;6.32;;;1.02;;
64293;SDS011;50636;45.596;5.258;2023-04-15T07:17:43;8.43;;;1.00;;
64293;SDS011;50636;45.596;5.258;2023-04-15T07:20:09;5.72;;;1.30;;
64293;SDS011;50636;45.596;5.258;2023-04-15T07:22:35;7.32;;;1.70;;
64293;SDS011;50636;45.596;5.258;2023-04-15T07:25:01;5.07;;;1.45;;
64293;SDS011;50636;45.596;5.258;2023-04-15T07:27:26;5.03;;;0.80;;
64293;SDS011;50636;45.596;5.258;2023-04-15T07:29:52;4.18;;;0.90;;
64293;SDS011;50636;45.596;5.258;2023-04-15T07:32:18;10.05;;;1.80;;
64293;SDS011;50636;45.596;5.258;2023-04-15T07:34:44;9.30;;;1.20;;
64293;SDS011;50636;45.596;5.258;2023-04-15T07:37:10;9.38;;;1.35;;
64293;SDS011;50636;45.596;5.258;2023-04-15T07:39:35;6.03;;;0.80;;
64293;SDS011;50636;45.596;5.258;2023-04-15T07:42:01;7.55;;;1.15;;
64293;SDS011;50636;45.596;5.258;2023-04-15T07:44:28;3.15;;;1.20;;
64293;SDS011;50636;45.596;5.258;2023-04-15T07:46:55;5.50;;;1.60;;
64293;SDS011;50636;45.596;5.258;2023-04-15T07:49:21;6.40;;;1.60;;
64293;SDS011;50636;45.596;5.258;2023-04-15T07:51:47;4.38;;;1.05;;
64293;SDS011;50636;45.596;5.258;2023-04-15T07:54:13;11.07;;;1.75;;
64293;SDS011;50636;45.596;5.258;2023-04-15T07:56:39;7.93;;;1.90;;
64293;SDS011;50636;45.596;5.258;2023-04-15T07:59:06;9.50;;;1.95;;
64293;SDS011;50636;45.596;5.258;2023-04-15T08:01:33;9.27;;;1.38;;
64293;SDS011;50636;45.596;5.258;2023-04-15T08:03:59;8.30;;;1.52;;
64293;SDS011;50636;45.596;5.258;2023-04-15T08:06:25;10.05;;;1.20;;
64293;SDS011;50636;45.596;5.258;2023-04-15T08:08:51;2.67;;;1.00;;
64293;SDS011;50636;45.596;5.258;2023-04-15T08:11:18;4.07;;;1.30;;
64293;SDS011;50636;45.596;5.258;2023-04-15T08:13:45;2.22;;;1.08;;
64293;SDS011;50636;45.596;5.258;2023-04-15T08:16:18;5.60;;;1.10;;
64293;SDS011;50636;45.596;5.258;2023-04-15T08:18:49;3.70;;;0.68;;
64293;SDS011;50636;45.596;5.258;2023-04-15T08:21:17;7.00;;;1.15;;
64293;SDS011;50636;45.596;5.258;2023-04-15T08:23:44;6.55;;;0.88;;
64293;SDS011;50636;45.596;5.258;2023-04-15T08:26:11;4.38;;;0.70;;
64293;SDS011;50636;45.596;5.258;2023-04-15T08:28:38;1.95;;;0.60;;
64293;SDS011;50636;45.596;5.258;2023-04-15T08:31:04;6.28;;;1.40;;
64293;SDS011;50636;45.596;5.258;2023-04-15T08:33:30;2.63;;;0.60;;
64293;SDS011;50636;45.596;5.258;2023-04-15T08:35:56;3.72;;;0.85;;
64293;SDS011;50636;45.596;5.258;2023-04-15T08:38:22;3.63;;;0.75;;
64293;SDS011;50636;45.596;5.258;2023-04-15T08:40:48;2.40;;;0.93;;
64293;SDS011;50636;45.596;5.258;2023-04-15T08:43:17;4.70;;;0.90;;
64293;SDS011;50636;45.596;5.258;2023-04-15T08:45:50;3.03;;;0.90;;
64293;SDS011;50636;45.596;5.258;2023-04-15T08:48:17;2.45;;;0.80;;
64293;SDS011;50636;45.596;5.258;2023-04-15T08:50:44;2.25;;;0.90;;
64293;SDS011;50636;45.596;5.258;2023-04-15T08:53:11;3.42;;;1.02;;
64293;SDS011;50636;45.596;5.258;2023-04-15T08:55:39;7.15;;;0.90;;
64293;SDS011;50636;45.596;5.258;2023-04-15T08:58:09;6.88;;;1.00;;
64293;SDS011;50636;45.596;5.258;2023-04-15T09:00:36;6.80;;;1.08;;
64293;SDS011;50636;45.596;5.258;2023-04-15T09:03:03;2.75;;;0.60;;
64293;SDS011;50636;45.596;5.258;2023-04-15T09:05:34;5.90;;;1.05;;
64293;SDS011;50636;45.596;5.258;2023-04-15T09:08:00;3.67;;;0.90;;
64293;SDS011;50636;45.596;5.258;2023-04-15T09:10:27;1.23;;;0.52;;
64293;SDS011;50636;45.596;5.258;2023-04-15T09:12:53;7.78;;;1.95;;
64293;SDS011;50636;45.596;5.258;2023-04-15T09:15:20;2.53;;;0.43;;
64293;SDS011;50636;45.596;5.258;2023-04-15T09:17:46;2.70;;;0.73;;
64293;SDS011;50636;45.596;5.258;2023-04-15T09:20:13;1.42;;;0.65;;
64293;SDS011;50636;45.596;5.258;2023-04-15T09:22:41;3.95;;;0.70;;
64293;SDS011;50636;45.596;5.258;2023-04-15T09:27:58;1.48;;;0.50;;
64293;SDS011;50636;45.596;5.258;2023-04-15T09:30:28;2.88;;;0.60;;
64293;SDS011;50636;45.596;5.258;2023-04-15T09:32:58;3.05;;;0.70;;
64293;SDS011;50636;45.596;5.258;2023-04-15T09:35:35;2.20;;;0.45;;
64293;SDS011;50636;45.596;5.258;2023-04-15T09:38:02;2.70;;;0.80;;
64293;SDS011;50636;45.596;5.258;2023-04-15T09:40:30;6.60;;;0.63;;
64293;SDS011;50636;45.596;5.258;2023-04-15T09:43:00;1.58;;;0.60;;
64293;SDS011;50636;45.596;5.258;2023-04-15T09:45:28;2.33;;;0.75;;
64293;SDS011;50636;45.596;5.258;2023-04-15T09:47:54;3.95;;;0.90;;
64293;SDS011;50636;45.596;5.258;2023-04-15T09:50:22;1.02;;;0.40;;
64293;SDS011;50636;45.596;5.258;2023-04-15T09:52:53;2.58;;;0.40;;
64293;SDS011;50636;45.596;5.258;2023-04-15T09:55:20;2.15;;;0.43;;
64293;SDS011;50636;45.596;5.258;2023-04-15T09:57:45;4.93;;;1.17;;
64293;SDS011;50636;45.596;5.258;2023-04-15T10:00:11;2.15;;;0.60;;
64293;SDS011;50636;45.596;5.258;2023-04-15T10:02:41;2.72;;;0.55;;
64293;SDS011;50636;45.596;5.258;2023-04-15T10:05:11;1.83;;;0.50;;
64293;SDS011;50636;45.596;5.258;2023-04-15T10:07:38;1.40;;;0.80;;
64293;SDS011;50636;45.596;5.258;2023-04-15T10:10:06;1.27;;;0.40;;
64293;SDS011;50636;45.596;5.258;2023-04-15T10:12:34;1.08;;;0.50;;
64293;SDS011;50636;45.596;5.258;2023-04-15T10:15:05;1.20;;;0.50;;
64293;SDS011;50636;45.596;5.258;2023-04-15T10:17:32;3.92;;;0.60;;
64293;SDS011;50636;45.596;5.258;2023-04-15T10:20:01;1.08;;;0.60;;
64293;SDS011;50636;45.596;5.258;2023-04-15T10:22:28;6.53;;;0.90;;
64293;SDS011;50636;45.596;5.258;2023-04-15T10:24:55;3.05;;;0.73;;
64293;SDS011;50636;45.596;5.258;2023-04-15T10:27:22;3.78;;;1.17;;
64293;SDS011;50636;45.596;5.258;2023-04-15T10:29:49;2.13;;;0.82;;
64293;SDS011;50636;45.596;5.258;2023-04-15T10:32:17;2.05;;;0.70;;
64293;SDS011;50636;45.596;5.258;2023-04-15T10:34:45;1.58;;;0.60;;
64293;SDS011;50636;45.596;5.258;2023-04-15T10:37:18;3.08;;;0.70;;
64293;SDS011;50636;45.596;5.258;2023-04-15T10:39:57;0.98;;;0.30;;
64293;SDS011;50636;45.596;5.258;2023-04-15T10:42:23;5.43;;;0.88;;
64293;SDS011;50636;45.596;5.258;2023-04-15T10:44:49;6.15;;;0.93;;
64293;SDS011;50636;45.596;5.258;2023-04-15T10:47:20;1.33;;;0.50;;
64293;SDS011;50636;45.596;5.258;2023-04-15T10:49:47;2.38;;;0.60;;
64293;SDS011;50636;45.596;5.258;2023-04-15T10:52:20;1.85;;;0.93;;
64293;SDS011;50636;45.596;5.258;2023-04-15T10:54:48;1.30;;;0.65;;
64293;SDS011;50636;45.596;5.258;2023-04-15T10:57:15;9.88;;;0.80;;
64293;SDS011;50636;45.596;5.258;2023-04-15T11:00:00;4.13;;;0.60;;
64293;SDS011;50636;45.596;5.258;2023-04-15T11:02:44;6.88;;;0.80;;
64293;SDS011;50636;45.596;5.258;2023-04-15T11:05:12;2.30;;;0.40;;
64293;SDS011;50636;45.596;5.258;2023-04-15T11:07:51;5.97;;;0.60;;
64293;SDS011;50636;45.596;5.258;2023-04-15T11:12:55;7.90;;;0.43;;
64293;SDS011;50636;45.596;5.258;2023-04-15T11:18:19;4.15;;;0.50;;
64293;SDS011;50636;45.596;5.258;2023-04-15T11:20:52;5.28;;;0.52;;
64293;SDS011;50636;45.596;5.258;2023-04-15T11:23:33;4.18;;;0.63;;
64293;SDS011;50636;45.596;5.258;2023-04-15T11:26:08;1.00;;;0.30;;
64293;SDS011;50636;45.596;5.258;2023-04-15T11:28:36;2.78;;;0.45;;
64293;SDS011;50636;45.596;5.258;2023-04-15T11:33:34;6.90;;;0.90;;
64293;SDS011;50636;45.596;5.258;2023-04-15T11:36:00;0.85;;;0.38;;
64293;SDS011;50636;45.596;5.258;2023-04-15T11:38:27;3.40;;;0.60;;
64293;SDS011;50636;45.596;5.258;2023-04-15T11:40:52;4.40;;;0.70;;
64293;SDS011;50636;45.596;5.258;2023-04-15T11:43:19;4.88;;;0.45;;
64293;SDS011;50636;45.596;5.258;2023-04-15T11:48:16;6.18;;;0.70;;
64293;SDS011;50636;45.596;5.258;2023-04-15T11:50:43;2.33;;;0.50;;
64293;SDS011;50636;45.596;5.258;2023-04-15T11:53:10;4.97;;;0.50;;
64293;SDS011;50636;45.596;5.258;2023-04-15T11:55:41;3.30;;;0.60;;
64293;SDS011;50636;45.596;5.258;2023-04-15T11:58:20;3.22;;;0.43;;
64293;SDS011;50636;45.596;5.258;2023-04-15T12:00:52;1.45;;;0.30;;
64293;SDS011;50636;45.596;5.258;2023-04-15T12:03:23;2.53;;;0.60;;
64293;SDS011;50636;45.596;5.258;2023-04-15T12:13:54;9.32;;;1.10;;
64293;SDS011;50636;45.596;5.258;2023-04-15T12:16:22;5.60;;;0.95;;
64293;SDS011;50636;45.596;5.258;2023-04-15T12:18:52;4.43;;;0.80;;
64293;SDS011;50636;45.596;5.258;2023-04-15T12:21:27;6.75;;;0.77;;
64293;SDS011;50636;45.596;5.258;2023-04-15T12:24:00;8.38;;;1.25;;
64293;SDS011;50636;45.596;5.258;2023-04-15T12:26:27;6.38;;;1.58;;
64293;SDS011;50636;45.596;5.258;2023-04-15T12:29:07;4.43;;;0.60;;
64293;SDS011;50636;45.596;5.258;2023-04-15T12:31:34;4.28;;;0.70;;
64293;SDS011;50636;45.596;5.258;2023-04-15T12:34:06;2.72;;;0.47;;
64293;SDS011;50636;45.596;5.258;2023-04-15T12:36:33;14.02;;;1.40;;
64293;SDS011;50636;45.596;5.258;2023-04-15T12:39:02;5.20;;;1.15;;
64293;SDS011;50636;45.596;5.258;2023-04-15T12:41:31;6.00;;;0.60;;
64293;SDS011;50636;45.596;5.258;2023-04-15T12:43:57;1.70;;;0.70;;
64293;SDS011;50636;45.596;5.258;2023-04-15T12:46:23;4.28;;;0.70;;
64293;SDS011;50636;45.596;5.258;2023-04-15T12:48:49;6.65;;;0.82;;
64293;SDS011;50636;45.596;5.258;2023-04-15T12:51:18;1.73;;;0.60;;
64293;SDS011;50636;45.596;5.258;2023-04-15T12:53:47;4.45;;;1.27;;
64293;SDS011;50636;45.596;5.258;2023-04-15T12:56:14;7.43;;;1.33;;
64293;SDS011;50636;45.596;5.258;2023-04-15T12:58:43;8.90;;;1.30;;
64293;SDS011;50636;45.596;5.258;2023-04-15T13:01:09;4.20;;;1.08;;
64293;SDS011;50636;45.596;5.258;2023-04-15T13:03:35;3.38;;;1.60;;
64293;SDS011;50636;45.596;5.258;2023-04-15T13:06:01;0.63;;;0.45;;
64293;SDS011;50636;45.596;5.258;2023-04-15T13:08:29;3.63;;;0.88;;
64293;SDS011;50636;45.596;5.258;2023-04-15T13:10:55;5.78;;;1.48;;
64293;SDS011;50636;45.596;5.258;2023-04-15T13:13:21;5.35;;;1.98;;
64293;SDS011;50636;45.596;5.258;2023-04-15T13:15:47;8.20;;;4.10;;
64293;SDS011;50636;45.596;5.258;2023-04-15T13:18:12;6.90;;;1.88;;
64293;SDS011;50636;45.596;5.258;2023-04-15T13:20:38;6.70;;;1.65;;
64293;SDS011;50636;45.596;5.258;2023-04-15T13:23:04;3.50;;;1.92;;
64293;SDS011;50636;45.596;5.258;2023-04-15T13:25:30;9.70;;;6.63;;
64293;SDS011;50636;45.596;5.258;2023-04-15T13:27:56;6.22;;;3.80;;
64293;SDS011;50636;45.596;5.258;2023-04-15T13:30:22;8.88;;;5.13;;
64293;SDS011;50636;45.596;5.258;2023-04-15T13:32:48;6.00;;;2.05;;
64293;SDS011;50636;45.596;5.258;2023-04-15T13:35:14;4.78;;;2.15;;
64293;SDS011;50636;45.596;5.258;2023-04-15T13:37:40;10.32;;;1.48;;
64293;SDS011;50636;45.596;5.258;2023-04-15T13:40:06;15.00;;;6.50;;
64293;SDS011;50636;45.596;5.258;2023-04-15T13:42:32;13.65;;;10.82;;
64293;SDS011;50636;45.596;5.258;2023-04-15T13:44:58;3.50;;;1.20;;
64293;SDS011;50636;45.596;5.258;2023-04-15T13:47:23;11.73;;;3.67;;
64293;SDS011;50636;45.596;5.258;2023-04-15T13:49:49;10.38;;;3.95;;
64293;SDS011;50636;45.596;5.258;2023-04-15T13:52:17;3.17;;;2.05;;
64293;SDS011;50636;45.596;5.258;2023-04-15T13:54:42;23.25;;;12.35;;
64293;SDS011;50636;45.596;5.258;2023-04-15T13:57:08;10.50;;;5.50;;
64293;SDS011;50636;45.596;5.258;2023-04-15T13:59:34;7.28;;;1.80;;
64293;SDS011;50636;45.596;5.258;2023-04-15T14:02:00;1.85;;;0.70;;
64293;SDS011;50636;45.596;5.258;2023-04-15T14:04:25;3.47;;;1.10;;
64293;SDS011;50636;45.596;5.258;2023-04-15T14:06:51;3.20;;;0.93;;
64293;SDS011;50636;45.596;5.258;2023-04-15T14:09:17;1.45;;;0.70;;
64293;SDS011;50636;45.596;5.258;2023-04-15T14:11:43;3.35;;;0.70;;
64293;SDS011;50636;45.596;5.258;2023-04-15T14:14:08;9.23;;;2.58;;
64293;SDS011;50636;45.596;5.258;2023-04-15T14:16:34;0.52;;;0.40;;
64293;SDS011;50636;45.596;5.258;2023-04-15T14:19:00;8.32;;;0.93;;
64293;SDS011;50636;45.596;5.258;2023-04-15T14:21:26;17.55;;;12.63;;
64293;SDS011;50636;45.596;5.258;2023-04-15T14:23:53;1.50;;;1.23;;
64293;SDS011;50636;45.596;5.258;2023-04-15T14:26:19;10.82;;;6.20;;
64293;SDS011;50636;45.596;5.258;2023-04-15T14:28:45;2.13;;;1.10;;
64293;SDS011;50636;45.596;5.258;2023-04-15T14:31:12;5.00;;;1.75;;
64293;SDS011;50636;45.596;5.258;2023-04-15T14:33:38;4.07;;;0.70;;
64293;SDS011;50636;45.596;5.258;2023-04-15T14:36:04;4.93;;;1.08;;
64293;SDS011;50636;45.596;5.258;2023-04-15T14:38:30;4.90;;;0.82;;
64293;SDS011;50636;45.596;5.258;2023-04-15T14:40:57;1.15;;;0.60;;
64293;SDS011;50636;45.596;5.258;2023-04-15T14:43:23;2.33;;;0.55;;
64293;SDS011;50636;45.596;5.258;2023-04-15T14:45:49;4.50;;;0.70;;
64293;SDS011;50636;45.596;5.258;2023-04-15T14:48:16;3.60;;;0.68;;
64293;SDS011;50636;45.596;5.258;2023-04-15T14:50:41;3.15;;;0.93;;
64293;SDS011;50636;45.596;5.258;2023-04-15T14:53:07;3.28;;;0.70;;
64293;SDS011;50636;45.596;5.258;2023-04-15T14:55:33;5.57;;;0.80;;
64293;SDS011;50636;45.596;5.258;2023-04-15T14:57:59;10.35;;;0.98;;
64293;SDS011;50636;45.596;5.258;2023-04-15T15:00:26;7.95;;;1.15;;
64293;SDS011;50636;45.596;5.258;2023-04-15T15:02:52;1.10;;;0.60;;